createdAt,value
2017-11-20T04:43:49.354Z,8.20
2017-11-20T04:46:17.100Z,4.10
2017-11-20T04:48:43.931Z,2.77
2017-11-20T04:51:10.898Z,1.30
2017-11-20T04:53:37.717Z,1.90
2017-11-20T04:56:04.631Z,8.57
2017-11-20T04:58:31.509Z,4.63
2017-11-20T05:00:58.319Z,3.07
2017-11-20T05:03:25.144Z,8.50
2017-11-20T05:05:51.996Z,43.87
2017-11-20T05:08:18.795Z,9.37
2017-11-20T05:10:45.620Z,3.40
2017-11-20T05:13:12.460Z,7.73
2017-11-20T05:15:39.303Z,16.73
2017-11-20T05:18:06.152Z,9.23
2017-11-20T05:20:33.012Z,8.90
2017-11-20T05:22:59.916Z,7.40
2017-11-20T05:25:26.840Z,8.83
2017-11-20T05:27:53.731Z,16.63
2017-11-20T05:30:20.580Z,8.23
2017-11-20T05:32:47.407Z,2.87
2017-11-20T05:35:14.365Z,7.73
2017-11-20T05:37:41.197Z,13.23
2017-11-20T05:40:08.095Z,5.80
2017-11-20T05:42:34.969Z,16.43
2017-11-20T05:45:01.891Z,13.95
2017-11-20T05:47:28.698Z,25.23
2017-11-20T05:49:55.528Z,6.00
2017-11-20T05:52:23.389Z,3.63
2017-11-20T05:54:50.238Z,8.60
2017-11-20T05:57:17.175Z,10.03
2017-11-20T05:59:44.022Z,1.83
2017-11-20T06:02:10.921Z,5.67
2017-11-20T06:04:37.804Z,8.27
2017-11-20T06:07:04.641Z,3.80
2017-11-20T06:09:31.807Z,12.80
2017-11-20T06:11:58.660Z,4.70
2017-11-20T06:14:25.473Z,14.93
2017-11-20T06:16:52.312Z,21.60
2017-11-20T06:19:19.198Z,15.10
2017-11-20T06:21:46.044Z,7.50
2017-11-20T06:24:12.834Z,2.77
2017-11-20T06:26:39.698Z,1.57
2017-11-20T06:29:06.535Z,17.80
2017-11-20T06:31:33.392Z,4.90
2017-11-20T06:34:00.242Z,4.00
2017-11-20T06:36:27.104Z,1.50
2017-11-20T06:38:53.930Z,6.13
2017-11-20T06:41:20.753Z,11.52
2017-11-20T06:43:47.593Z,4.37
2017-11-20T06:46:14.724Z,8.70
2017-11-20T06:48:41.576Z,6.30
2017-11-20T06:51:08.379Z,7.87
2017-11-20T06:53:35.132Z,2.93
2017-11-20T06:56:02.219Z,4.10
2017-11-20T06:58:29.378Z,5.97
2017-11-20T07:00:56.195Z,6.80
2017-11-20T07:03:23.015Z,5.10
2017-11-20T07:05:50.123Z,16.90
2017-11-20T07:08:16.912Z,5.90
2017-11-20T07:10:43.726Z,5.00
2017-11-20T07:13:10.526Z,9.30
2017-11-20T07:15:37.351Z,7.33
2017-11-20T07:18:04.217Z,20.07
2017-11-20T07:20:36.906Z,11.33
2017-11-20T07:23:03.768Z,6.53
2017-11-20T07:25:36.537Z,4.60
2017-11-20T07:28:03.348Z,9.27
2017-11-20T07:30:36.768Z,4.03
2017-11-20T07:33:03.581Z,3.97
2017-11-20T07:35:37.191Z,7.17
2017-11-20T07:38:09.842Z,6.33
2017-11-20T07:40:54.282Z,8.53
2017-11-20T07:43:21.115Z,12.93
2017-11-20T07:45:47.918Z,5.33
2017-11-20T07:48:14.831Z,7.57
2017-11-20T07:50:41.685Z,6.27
2017-11-20T07:53:08.565Z,5.60
2017-11-20T07:55:35.437Z,3.90
2017-11-20T07:58:02.254Z,2.97
2017-11-20T08:00:29.154Z,7.27
2017-11-20T08:02:55.992Z,2.27
2017-11-20T08:05:22.825Z,11.70
2017-11-20T08:07:49.723Z,15.13
2017-11-20T08:10:16.619Z,10.80
2017-11-20T08:12:43.437Z,13.87
2017-11-20T08:15:10.285Z,7.33
2017-11-20T08:17:37.207Z,3.87
2017-11-20T08:20:04.045Z,8.63
2017-11-20T08:22:30.895Z,10.80
2017-11-20T08:24:57.795Z,8.30
2017-11-20T08:27:24.678Z,5.80
2017-11-20T08:29:51.620Z,5.23
2017-11-20T08:32:18.498Z,3.17
2017-11-20T08:34:45.358Z,3.53
2017-11-20T08:37:12.262Z,3.53
2017-11-20T08:39:39.146Z,2.90
2017-11-20T08:42:05.984Z,9.23
2017-11-20T08:44:32.869Z,22.07
2017-11-20T08:46:59.781Z,8.63
2017-11-20T08:49:26.620Z,15.17
2017-11-20T08:51:53.419Z,17.83
2017-11-20T08:54:20.893Z,2.43
2017-11-20T08:56:47.733Z,7.50
2017-11-20T08:59:14.703Z,3.43
2017-11-20T09:01:41.884Z,3.50
2017-11-20T09:04:08.757Z,4.90
2017-11-20T09:06:35.646Z,4.10
2017-11-20T09:09:02.536Z,8.37
2017-11-20T09:11:29.381Z,4.53
2017-11-20T09:13:56.193Z,8.20
2017-11-20T09:16:23.070Z,3.40
2017-11-20T09:18:49.954Z,3.23
2017-11-20T09:21:16.793Z,3.60
2017-11-20T09:23:43.648Z,2.90
2017-11-20T09:26:10.462Z,7.10
2017-11-20T09:28:37.277Z,3.30
2017-11-20T09:31:04.120Z,10.83
2017-11-20T09:33:30.969Z,5.60
2017-11-20T09:35:57.895Z,12.10
2017-11-20T09:38:24.811Z,9.33
2017-11-20T09:40:51.624Z,12.90
2017-11-20T09:43:18.526Z,3.20
2017-11-20T09:45:45.489Z,4.60
2017-11-20T09:48:12.388Z,4.20
2017-11-20T09:50:39.266Z,11.27
2017-11-20T09:53:06.170Z,5.33
2017-11-20T09:55:33.051Z,8.33
2017-11-20T09:57:59.894Z,19.97
2017-11-20T10:00:26.783Z,7.60
2017-11-20T10:02:53.640Z,5.83
2017-11-20T10:05:20.526Z,2.20
2017-11-20T10:07:47.409Z,15.50
2017-11-20T10:10:14.254Z,6.13
2017-11-20T10:12:41.154Z,4.40
2017-11-20T10:15:08.064Z,5.70
2017-11-20T10:17:34.885Z,1.73
2017-11-20T10:20:01.732Z,8.80
2017-11-20T10:22:28.597Z,4.10
2017-11-20T10:24:55.477Z,4.63
2017-11-20T10:27:22.355Z,2.37
2017-11-20T10:29:49.270Z,4.50
2017-11-20T10:32:16.140Z,2.40
2017-11-20T10:34:43.004Z,2.03
2017-11-20T10:37:09.948Z,3.97
2017-11-20T10:39:36.765Z,8.63
2017-11-20T10:42:03.629Z,13.57
2017-11-20T10:44:30.635Z,2.50
2017-11-20T10:46:57.542Z,24.07
2017-11-20T10:49:24.465Z,23.80
2017-11-20T10:51:51.527Z,1.17
2017-11-20T10:54:18.538Z,4.63
2017-11-20T10:56:45.400Z,6.80
2017-11-20T10:59:12.308Z,4.10
2017-11-20T11:01:39.211Z,2.83
2017-11-20T11:04:06.113Z,13.83
2017-11-20T11:06:33.019Z,5.20
2017-11-20T11:08:59.876Z,6.40
2017-11-20T11:11:26.784Z,5.13
2017-11-20T11:13:53.687Z,5.93
2017-11-20T11:16:20.607Z,3.40
2017-11-20T11:18:47.503Z,9.70
2017-11-20T11:21:14.499Z,4.27
2017-11-20T11:23:41.366Z,5.30
2017-11-20T11:26:08.217Z,26.53
2017-11-20T11:28:35.168Z,4.13
2017-11-20T11:31:02.062Z,6.67
2017-11-20T11:33:28.947Z,6.77
2017-11-20T11:35:55.844Z,5.23
2017-11-20T11:38:22.740Z,3.70
2017-11-20T11:40:49.636Z,2.00
2017-11-20T11:43:16.932Z,6.30
2017-11-20T11:45:44.557Z,2.97
2017-11-20T11:48:11.431Z,6.40
2017-11-20T11:50:39.309Z,13.67
2017-11-20T11:53:06.195Z,2.80
2017-11-20T11:55:33.067Z,2.80
2017-11-20T11:57:59.961Z,1.60
2017-11-20T12:00:26.831Z,1.43
2017-11-20T12:02:53.783Z,5.60
2017-11-20T12:05:20.658Z,6.37
2017-11-20T12:07:47.569Z,3.37
2017-11-20T12:10:14.474Z,5.90
2017-11-20T12:12:41.385Z,6.93
2017-11-20T12:15:08.300Z,7.53
2017-11-20T12:17:35.187Z,4.20
2017-11-20T12:20:02.140Z,7.73
2017-11-20T12:22:29.036Z,8.60
2017-11-20T12:24:55.917Z,9.70
2017-11-20T12:27:22.819Z,11.17
2017-11-20T12:29:49.665Z,7.83
2017-11-20T12:32:16.618Z,8.07
2017-11-20T12:34:43.605Z,8.77
2017-11-20T12:37:10.499Z,7.80
2017-11-20T12:39:37.447Z,4.93
2017-11-20T12:42:04.317Z,8.23
2017-11-20T12:44:31.221Z,5.93
2017-11-20T12:46:58.174Z,5.20
2017-11-20T12:49:25.123Z,5.53
2017-11-20T12:51:52.003Z,5.53
2017-11-20T12:54:18.848Z,7.27
2017-11-20T12:56:45.765Z,5.67
2017-11-20T12:59:12.630Z,6.43
2017-11-20T13:01:39.514Z,9.43
2017-11-20T13:04:06.393Z,8.10
2017-11-20T13:06:33.285Z,6.00
2017-11-20T13:09:00.105Z,8.17
2017-11-20T13:11:27.927Z,5.87
2017-11-20T13:13:55.639Z,10.20
2017-11-20T13:16:22.618Z,3.50
2017-11-20T13:18:49.572Z,11.43
2017-11-20T13:21:16.446Z,3.23
2017-11-20T13:23:43.387Z,6.97
2017-11-20T13:26:10.371Z,4.90
2017-11-20T13:28:37.319Z,2.67
2017-11-20T13:31:04.249Z,4.57
2017-11-20T13:33:31.172Z,3.70
2017-11-20T13:35:58.107Z,3.13
2017-11-20T13:38:25.064Z,4.43
2017-11-20T13:40:52.039Z,4.60
2017-11-20T13:43:18.970Z,5.20
2017-11-20T13:45:45.833Z,8.43
2017-11-20T13:48:12.769Z,3.60
2017-11-20T13:50:39.672Z,7.70
2017-11-20T13:53:06.555Z,6.37
2017-11-20T13:55:33.557Z,4.33
2017-11-20T13:58:00.462Z,4.33
2017-11-20T14:00:27.323Z,3.80
2017-11-20T14:02:54.207Z,4.53
2017-11-20T14:05:21.083Z,2.90
2017-11-20T14:07:47.914Z,3.10
2017-11-20T14:10:16.840Z,4.17
2017-11-20T14:12:43.649Z,7.03
2017-11-20T14:15:10.520Z,3.13
2017-11-20T14:17:37.571Z,5.07
2017-11-20T14:20:04.981Z,5.23
2017-11-20T14:22:31.938Z,10.03
2017-11-20T14:24:58.847Z,6.20
2017-11-20T14:27:25.697Z,5.23
2017-11-20T14:29:52.575Z,3.73
2017-11-20T14:32:19.492Z,2.33
2017-11-20T14:34:46.381Z,4.45
2017-11-20T14:37:13.220Z,3.00
2017-11-20T14:39:40.139Z,1.03
2017-11-20T14:42:07.017Z,2.63
2017-11-20T14:44:34.396Z,2.60
2017-11-20T14:47:01.306Z,2.10
2017-11-20T14:49:29.088Z,7.10
2017-11-20T14:51:58.845Z,4.60
2017-11-20T14:54:27.466Z,5.27
2017-11-20T14:56:54.318Z,1.70
2017-11-20T14:59:21.207Z,7.63
2017-11-20T15:01:48.085Z,2.17
2017-11-20T15:04:14.968Z,3.93
2017-11-20T15:06:41.888Z,4.03
2017-11-20T15:09:08.895Z,5.60
2017-11-20T15:11:35.831Z,2.80
2017-11-20T15:14:02.863Z,6.40
2017-11-20T15:16:29.796Z,2.20
2017-11-20T15:18:56.708Z,4.80
2017-11-20T15:21:23.590Z,5.10
2017-11-20T15:23:50.486Z,1.90
2017-11-20T15:26:17.328Z,2.50
2017-11-20T15:28:44.231Z,1.90
2017-11-20T15:31:11.143Z,1.60
2017-11-20T15:33:37.976Z,4.67
2017-11-20T15:36:04.822Z,1.80
2017-11-20T15:38:31.699Z,3.50
2017-11-20T15:40:58.547Z,2.20
2017-11-20T15:43:25.436Z,2.50
2017-11-20T15:45:52.293Z,6.00
2017-11-20T15:48:19.112Z,3.00
2017-11-20T15:50:45.936Z,3.37
2017-11-20T15:53:12.888Z,3.23
2017-11-20T15:55:39.802Z,5.47
2017-11-20T15:58:06.690Z,2.30
2017-11-20T16:00:33.613Z,2.00
2017-11-20T16:03:00.507Z,3.10
2017-11-20T16:05:27.439Z,10.27
2017-11-20T16:07:54.280Z,5.90
2017-11-20T16:10:21.100Z,4.87
2017-11-20T16:12:47.947Z,4.13
2017-11-20T16:15:14.828Z,8.97
2017-11-20T16:17:41.663Z,1.67
2017-11-20T16:20:08.683Z,2.17
2017-11-20T16:22:35.560Z,1.70
2017-11-20T16:25:02.409Z,4.80
2017-11-20T16:27:29.310Z,3.13
2017-11-20T16:29:56.158Z,1.93
2017-11-20T16:32:22.982Z,1.83
2017-11-20T16:34:49.834Z,3.23
2017-11-20T16:37:16.758Z,2.70
2017-11-20T16:39:43.607Z,4.10
2017-11-20T16:42:10.988Z,5.63
2017-11-20T16:44:37.871Z,3.00
2017-11-20T16:47:04.878Z,5.20
2017-11-20T16:49:31.749Z,5.87
2017-11-20T16:51:58.657Z,4.07
2017-11-20T16:54:25.507Z,5.60
2017-11-20T16:56:58.182Z,4.93
2017-11-20T16:59:25.055Z,4.30
2017-11-20T17:01:57.730Z,5.17
2017-11-20T17:04:24.675Z,4.53
2017-11-20T17:06:51.610Z,5.87
2017-11-20T17:09:18.489Z,7.53
2017-11-20T17:11:45.353Z,7.97
2017-11-20T17:14:12.206Z,5.67
2017-11-20T17:16:39.040Z,10.87
2017-11-20T17:19:05.919Z,9.97
2017-11-20T17:21:32.737Z,8.77
2017-11-20T17:23:59.577Z,9.60
2017-11-20T17:26:26.511Z,11.90
2017-11-20T17:28:53.351Z,12.10
2017-11-20T17:31:21.057Z,13.60
2017-11-20T17:33:47.945Z,11.20
2017-11-20T17:36:14.758Z,14.83
2017-11-20T17:38:41.675Z,15.60
2017-11-20T17:41:08.643Z,18.40
2017-11-20T17:43:35.535Z,21.47
2017-11-20T17:46:02.436Z,20.97
2017-11-20T17:48:29.408Z,17.60
2017-11-20T17:50:56.267Z,17.60
2017-11-20T17:53:23.196Z,19.00
2017-11-20T17:55:50.112Z,19.57
2017-11-20T17:58:16.966Z,18.77
2017-11-20T18:00:43.821Z,15.93
2017-11-20T18:03:10.753Z,21.50
2017-11-20T18:05:37.625Z,23.87
2017-11-20T18:08:05.425Z,18.37
2017-11-20T18:10:32.319Z,20.47
2017-11-20T18:12:59.225Z,20.83
2017-11-20T18:15:26.120Z,19.47
2017-11-20T18:17:53.050Z,16.77
2017-11-20T18:20:19.904Z,21.03
2017-11-20T18:22:46.747Z,22.50
2017-11-20T18:25:13.676Z,22.10
2017-11-20T18:27:40.579Z,19.30
2017-11-20T18:30:07.477Z,22.03
2017-11-20T18:32:34.383Z,19.07
2017-11-20T18:35:01.263Z,21.00
2017-11-20T18:37:28.080Z,25.73
2017-11-20T18:39:54.940Z,18.47
2017-11-20T18:42:21.855Z,19.10
2017-11-20T18:44:48.683Z,21.23
2017-11-20T18:47:15.635Z,21.93
2017-11-20T18:49:42.471Z,16.17
2017-11-20T18:52:09.310Z,16.60
2017-11-20T18:54:36.210Z,18.10
2017-11-20T18:57:03.066Z,16.37
2017-11-20T18:59:29.938Z,16.43
2017-11-20T19:02:02.470Z,14.70
2017-11-20T19:04:35.006Z,19.80
2017-11-20T19:07:22.674Z,19.87
2017-11-20T19:09:49.583Z,19.50
2017-11-20T19:12:16.462Z,21.77
2017-11-20T19:14:43.405Z,18.40
2017-11-20T19:17:10.252Z,20.40
2017-11-20T19:19:37.094Z,14.97
2017-11-20T19:22:04.036Z,15.30
2017-11-20T19:24:30.942Z,18.03
2017-11-20T19:26:57.799Z,19.33
2017-11-20T19:29:24.662Z,20.53
2017-11-20T19:31:51.504Z,18.83
2017-11-20T19:34:18.353Z,18.23
2017-11-20T19:36:45.257Z,21.53
2017-11-20T19:39:12.146Z,19.30
2017-11-20T19:41:39.014Z,21.83
2017-11-20T19:44:05.922Z,19.93
2017-11-20T19:46:32.765Z,21.03
2017-11-20T19:48:59.650Z,21.70
2017-11-20T19:51:26.502Z,24.50
2017-11-20T19:53:53.395Z,22.13
2017-11-20T19:56:20.242Z,17.90
2017-11-20T19:58:47.092Z,23.03
2017-11-20T20:01:13.937Z,23.27
2017-11-20T20:03:40.828Z,20.63
2017-11-20T20:06:07.740Z,24.77
2017-11-20T20:08:34.738Z,20.17
2017-11-20T20:11:01.627Z,20.83
2017-11-20T20:13:34.275Z,23.10
2017-11-20T20:16:06.924Z,22.90
2017-11-20T20:18:33.844Z,21.13
2017-11-20T20:21:00.746Z,25.92
2017-11-20T20:23:27.601Z,24.17
2017-11-20T20:25:54.422Z,23.30
2017-11-20T20:28:21.322Z,20.23
2017-11-20T20:30:48.247Z,21.27
2017-11-20T20:33:15.108Z,22.93
2017-11-20T20:35:42.062Z,20.30
2017-11-20T20:38:08.966Z,23.10
2017-11-20T20:40:35.872Z,27.33
2017-11-20T20:43:02.713Z,19.03
2017-11-20T20:45:29.557Z,24.90
2017-11-20T20:47:56.427Z,32.17
2017-11-20T20:50:23.331Z,24.60
2017-11-20T20:52:50.180Z,22.87
2017-11-20T20:55:16.999Z,26.17
2017-11-20T20:57:43.900Z,25.70
2017-11-20T21:00:10.685Z,28.30
2017-11-20T21:02:37.561Z,28.97
2017-11-20T21:05:04.454Z,23.03
2017-11-20T21:07:31.286Z,21.67
2017-11-20T21:10:03.706Z,21.50
2017-11-20T21:12:30.629Z,31.00
2017-11-20T21:14:57.472Z,26.63
2017-11-20T21:17:24.289Z,27.93
2017-11-20T21:19:51.147Z,24.33
2017-11-20T21:22:18.215Z,25.57
2017-11-20T21:24:45.008Z,22.43
2017-11-20T21:27:11.830Z,25.77
2017-11-20T21:29:38.652Z,28.03
2017-11-20T21:32:05.445Z,29.50
2017-11-20T21:34:32.294Z,30.30
2017-11-20T21:36:59.137Z,28.97
2017-11-20T21:39:28.521Z,30.20
2017-11-20T21:41:55.405Z,25.47
2017-11-20T21:44:22.252Z,33.47
2017-11-20T21:46:49.102Z,28.13
2017-11-20T21:49:16.305Z,28.17
2017-11-20T21:51:43.144Z,26.27
2017-11-20T21:54:10.037Z,31.10
2017-11-20T21:56:36.946Z,26.33
2017-11-20T21:59:03.763Z,27.37
2017-11-20T22:01:30.561Z,31.83
2017-11-20T22:03:57.413Z,32.17
2017-11-20T22:06:24.236Z,33.80
2017-11-20T22:08:51.071Z,35.30
2017-11-20T22:11:17.921Z,27.40
2017-11-20T22:13:47.625Z,29.13
2017-11-20T22:16:16.039Z,25.07
2017-11-20T22:18:42.957Z,30.97
2017-11-20T22:21:09.823Z,33.43
2017-11-20T22:23:36.688Z,31.70
2017-11-20T22:26:03.555Z,31.63
2017-11-20T22:28:30.395Z,26.87
2017-11-20T22:30:57.248Z,26.57
2017-11-20T22:33:24.105Z,26.60
2017-11-20T22:35:50.929Z,30.50
2017-11-20T22:38:17.782Z,27.23
2017-11-20T22:40:44.673Z,30.03
2017-11-20T22:43:11.502Z,25.57
2017-11-20T22:45:38.333Z,27.60
2017-11-20T22:48:05.210Z,30.27
2017-11-20T22:50:32.005Z,27.60
2017-11-20T22:52:58.859Z,27.23
2017-11-20T22:55:25.754Z,26.37
2017-11-20T22:57:53.157Z,26.73
2017-11-20T23:00:19.999Z,25.20
2017-11-20T23:02:46.896Z,29.50
2017-11-20T23:05:13.752Z,30.03
2017-11-20T23:07:40.566Z,26.10
2017-11-20T23:10:07.427Z,33.10
